sensor_id;sensor_type;location;lat;lon;timestamp;temperature;humidity
10443;DHT22;5269;51.146;16.986;2022-11-30T00:02:08;0.50;99.90
10443;DHT22;5269;51.146;16.986;2022-11-30T00:04:37;0.50;99.90
10443;DHT22;5269;51.146;16.986;2022-11-30T00:07:07;0.50;99.90
10443;DHT22;5269;51.146;16.986;2022-11-30T00:09:39;0.50;99.90
10443;DHT22;5269;51.146;16.986;2022-11-30T00:12:10;0.40;99.90
10443;DHT22;5269;51.146;16.986;2022-11-30T00:14:43;0.40;99.90
10443;DHT22;5269;51.146;16.986;2022-11-30T00:17:16;0.30;99.90
10443;DHT22;5269;51.146;16.986;2022-11-30T00:19:48;0.40;99.90
10443;DHT22;5269;51.146;16.986;2022-11-30T00:22:17;0.30;99.90
10443;DHT22;5269;51.146;16.986;2022-11-30T00:24:44;0.40;99.90
10443;DHT22;5269;51.146;16.986;2022-11-30T00:27:11;0.30;99.90
10443;DHT22;5269;51.146;16.986;2022-11-30T00:29:41;0.30;99.90
10443;DHT22;5269;51.146;16.986;2022-11-30T00:32:19;0.40;99.90
10443;DHT22;5269;51.146;16.986;2022-11-30T00:34:46;0.30;99.90
10443;DHT22;5269;51.146;16.986;2022-11-30T00:37:19;0.30;99.90
10443;DHT22;5269;51.146;16.986;2022-11-30T00:39:47;0.30;99.90
10443;DHT22;5269;51.146;16.986;2022-11-30T00:42:15;0.30;99.90
10443;DHT22;5269;51.146;16.986;2022-11-30T00:44:42;0.30;99.90
10443;DHT22;5269;51.146;16.986;2022-11-30T00:47:16;0.20;99.90
10443;DHT22;5269;51.146;16.986;2022-11-30T00:49:43;0.20;99.90
10443;DHT22;5269;51.146;16.986;2022-11-30T00:52:10;0.20;99.90
10443;DHT22;5269;51.146;16.986;2022-11-30T00:54:38;0.20;99.90
10443;DHT22;5269;51.146;16.986;2022-11-30T00:57:08;0.20;99.90
10443;DHT22;5269;51.146;16.986;2022-11-30T00:59:35;0.20;99.90
10443;DHT22;5269;51.146;16.986;2022-11-30T01:02:08;0.10;99.90
10443;DHT22;5269;51.146;16.986;2022-11-30T01:04:38;0.20;99.90
10443;DHT22;5269;51.146;16.986;2022-11-30T01:07:05;0.20;99.90
10443;DHT22;5269;51.146;16.986;2022-11-30T01:09:34;0.10;99.90
10443;DHT22;5269;51.146;16.986;2022-11-30T01:12:06;0.10;99.90
10443;DHT22;5269;51.146;16.986;2022-11-30T01:14:36;0.10;99.90
10443;DHT22;5269;51.146;16.986;2022-11-30T01:17:09;0.00;99.90
10443;DHT22;5269;51.146;16.986;2022-11-30T01:19:37;0.00;99.90
10443;DHT22;5269;51.146;16.986;2022-11-30T01:22:04;0.10;99.90
10443;DHT22;5269;51.146;16.986;2022-11-30T01:24:31;0.00;99.90
10443;DHT22;5269;51.146;16.986;2022-11-30T01:27:01;0.10;99.90
10443;DHT22;5269;51.146;16.986;2022-11-30T01:29:28;0.00;99.90
10443;DHT22;5269;51.146;16.986;2022-11-30T01:31:57;0.00;99.90
10443;DHT22;5269;51.146;16.986;2022-11-30T01:34:25;0.00;99.90
10443;DHT22;5269;51.146;16.986;2022-11-30T01:36:55;-0.10;99.90
10443;DHT22;5269;51.146;16.986;2022-11-30T01:39:22;0.00;99.90
10443;DHT22;5269;51.146;16.986;2022-11-30T01:41:55;-0.10;99.90
10443;DHT22;5269;51.146;16.986;2022-11-30T01:44:48;-0.10;99.90
10443;DHT22;5269;51.146;16.986;2022-11-30T01:47:16;-0.20;99.90
10443;DHT22;5269;51.146;16.986;2022-11-30T01:49:46;-0.10;99.90
10443;DHT22;5269;51.146;16.986;2022-11-30T01:52:19;-0.10;99.90
10443;DHT22;5269;51.146;16.986;2022-11-30T01:54:51;-0.10;99.90
10443;DHT22;5269;51.146;16.986;2022-11-30T01:57:30;0.00;99.90
10443;DHT22;5269;51.146;16.986;2022-11-30T02:00:06;0.10;99.90
10443;DHT22;5269;51.146;16.986;2022-11-30T02:02:52;0.00;99.90
10443;DHT22;5269;51.146;16.986;2022-11-30T02:05:21;0.00;99.90
10443;DHT22;5269;51.146;16.986;2022-11-30T02:07:58;0.00;99.90
10443;DHT22;5269;51.146;16.986;2022-11-30T02:10:28;-0.10;99.90
10443;DHT22;5269;51.146;16.986;2022-11-30T02:13:19;0.00;99.90
10443;DHT22;5269;51.146;16.986;2022-11-30T02:15:56;0.00;99.90
10443;DHT22;5269;51.146;16.986;2022-11-30T02:18:30;0.00;99.90
10443;DHT22;5269;51.146;16.986;2022-11-30T02:21:07;0.00;99.90
10443;DHT22;5269;51.146;16.986;2022-11-30T02:24:10;0.00;99.90
10443;DHT22;5269;51.146;16.986;2022-11-30T02:27:01;0.00;99.90
10443;DHT22;5269;51.146;16.986;2022-11-30T02:29:32;0.00;99.90
10443;DHT22;5269;51.146;16.986;2022-11-30T02:32:06;0.00;99.90
10443;DHT22;5269;51.146;16.986;2022-11-30T02:34:37;0.00;99.90
10443;DHT22;5269;51.146;16.986;2022-11-30T02:37:05;-0.10;99.90
10443;DHT22;5269;51.146;16.986;2022-11-30T02:39:34;-0.10;99.90
10443;DHT22;5269;51.146;16.986;2022-11-30T02:42:05;-0.10;99.90
10443;DHT22;5269;51.146;16.986;2022-11-30T02:44:36;-0.10;99.90
10443;DHT22;5269;51.146;16.986;2022-11-30T02:47:11;-0.20;99.90
10443;DHT22;5269;51.146;16.986;2022-11-30T02:49:45;-0.20;99.90
10443;DHT22;5269;51.146;16.986;2022-11-30T02:52:14;-0.10;99.90
10443;DHT22;5269;51.146;16.986;2022-11-30T02:54:43;-0.20;99.90
10443;DHT22;5269;51.146;16.986;2022-11-30T02:57:10;-0.20;99.90
10443;DHT22;5269;51.146;16.986;2022-11-30T02:59:39;-0.10;99.90
10443;DHT22;5269;51.146;16.986;2022-11-30T03:02:06;-0.20;99.90
10443;DHT22;5269;51.146;16.986;2022-11-30T03:04:33;-0.20;99.90
10443;DHT22;5269;51.146;16.986;2022-11-30T03:07:00;-0.10;99.90
10443;DHT22;5269;51.146;16.986;2022-11-30T03:09:27;-0.20;99.90
10443;DHT22;5269;51.146;16.986;2022-11-30T03:11:55;-0.10;99.90
10443;DHT22;5269;51.146;16.986;2022-11-30T03:14:24;-0.20;99.90
10443;DHT22;5269;51.146;16.986;2022-11-30T03:16:52;-0.20;99.90
10443;DHT22;5269;51.146;16.986;2022-11-30T03:19:21;-0.20;99.90
10443;DHT22;5269;51.146;16.986;2022-11-30T03:21:50;-0.10;99.90
10443;DHT22;5269;51.146;16.986;2022-11-30T03:24:19;-0.20;99.90
10443;DHT22;5269;51.146;16.986;2022-11-30T03:26:48;-0.20;99.90
10443;DHT22;5269;51.146;16.986;2022-11-30T03:29:16;-0.20;99.90
10443;DHT22;5269;51.146;16.986;2022-11-30T03:31:49;-0.20;99.90
10443;DHT22;5269;51.146;16.986;2022-11-30T03:34:17;-0.20;99.90
10443;DHT22;5269;51.146;16.986;2022-11-30T03:36:50;-0.20;99.90
10443;DHT22;5269;51.146;16.986;2022-11-30T03:39:17;-0.20;99.90
10443;DHT22;5269;51.146;16.986;2022-11-30T03:41:50;-0.20;99.90
10443;DHT22;5269;51.146;16.986;2022-11-30T03:44:30;-0.10;99.90
10443;DHT22;5269;51.146;16.986;2022-11-30T03:47:00;-0.10;99.90
10443;DHT22;5269;51.146;16.986;2022-11-30T03:49:30;-0.10;99.90
10443;DHT22;5269;51.146;16.986;2022-11-30T03:52:04;-0.10;99.90
10443;DHT22;5269;51.146;16.986;2022-11-30T03:54:37;-0.20;99.90
10443;DHT22;5269;51.146;16.986;2022-11-30T03:57:06;-0.20;99.90
10443;DHT22;5269;51.146;16.986;2022-11-30T03:59:34;-0.20;99.90
10443;DHT22;5269;51.146;16.986;2022-11-30T04:02:01;-0.20;99.90
10443;DHT22;5269;51.146;16.986;2022-11-30T04:04:30;-0.10;99.90
10443;DHT22;5269;51.146;16.986;2022-11-30T04:06:59;0.00;99.90
10443;DHT22;5269;51.146;16.986;2022-11-30T04:09:29;-0.20;99.90
10443;DHT22;5269;51.146;16.986;2022-11-30T04:11:56;-0.30;99.90
10443;DHT22;5269;51.146;16.986;2022-11-30T04:14:23;-0.20;99.90
10443;DHT22;5269;51.146;16.986;2022-11-30T04:16:57;-0.20;99.90
10443;DHT22;5269;51.146;16.986;2022-11-30T04:19:26;-0.20;99.90
10443;DHT22;5269;51.146;16.986;2022-11-30T04:21:57;-0.20;99.90
10443;DHT22;5269;51.146;16.986;2022-11-30T04:24:27;-0.20;99.90
10443;DHT22;5269;51.146;16.986;2022-11-30T04:26:58;-0.10;99.90
10443;DHT22;5269;51.146;16.986;2022-11-30T04:29:28;-0.20;99.90
10443;DHT22;5269;51.146;16.986;2022-11-30T04:31:56;-0.10;99.90
10443;DHT22;5269;51.146;16.986;2022-11-30T04:34:23;-0.20;99.90
10443;DHT22;5269;51.146;16.986;2022-11-30T04:36:54;0.00;99.90
10443;DHT22;5269;51.146;16.986;2022-11-30T04:39:21;0.00;99.90
10443;DHT22;5269;51.146;16.986;2022-11-30T04:41:50;0.00;99.90
10443;DHT22;5269;51.146;16.986;2022-11-30T04:44:23;0.00;99.90
10443;DHT22;5269;51.146;16.986;2022-11-30T04:46:54;-0.10;99.90
10443;DHT22;5269;51.146;16.986;2022-11-30T04:49:27;0.00;99.90
10443;DHT22;5269;51.146;16.986;2022-11-30T04:51:57;0.00;99.90
10443;DHT22;5269;51.146;16.986;2022-11-30T04:54:25;0.00;99.90
10443;DHT22;5269;51.146;16.986;2022-11-30T04:56:56;0.00;99.90
10443;DHT22;5269;51.146;16.986;2022-11-30T04:59:23;0.00;99.90
10443;DHT22;5269;51.146;16.986;2022-11-30T05:01:54;0.00;99.90
10443;DHT22;5269;51.146;16.986;2022-11-30T05:04:21;0.00;99.90
10443;DHT22;5269;51.146;16.986;2022-11-30T05:07:00;-0.10;99.90
10443;DHT22;5269;51.146;16.986;2022-11-30T05:09:27;-0.10;99.90
10443;DHT22;5269;51.146;16.986;2022-11-30T05:11:54;-0.10;99.90
10443;DHT22;5269;51.146;16.986;2022-11-30T05:14:21;0.00;99.90
10443;DHT22;5269;51.146;16.986;2022-11-30T05:16:48;-0.10;99.90
10443;DHT22;5269;51.146;16.986;2022-11-30T05:19:17;-0.20;99.90
10443;DHT22;5269;51.146;16.986;2022-11-30T05:21:45;-0.20;99.90
10443;DHT22;5269;51.146;16.986;2022-11-30T05:24:16;-0.20;99.90
10443;DHT22;5269;51.146;16.986;2022-11-30T05:26:43;0.00;99.90
10443;DHT22;5269;51.146;16.986;2022-11-30T05:29:18;0.20;99.90
10443;DHT22;5269;51.146;16.986;2022-11-30T05:31:49;0.10;99.90
10443;DHT22;5269;51.146;16.986;2022-11-30T05:34:18;0.00;99.90
10443;DHT22;5269;51.146;16.986;2022-11-30T05:36:48;-0.10;99.90
10443;DHT22;5269;51.146;16.986;2022-11-30T05:39:16;-0.20;99.90
10443;DHT22;5269;51.146;16.986;2022-11-30T05:41:43;-0.10;99.90
10443;DHT22;5269;51.146;16.986;2022-11-30T05:44:14;-0.20;99.90
10443;DHT22;5269;51.146;16.986;2022-11-30T05:46:45;-0.20;99.90
10443;DHT22;5269;51.146;16.986;2022-11-30T05:49:26;-0.20;99.90
10443;DHT22;5269;51.146;16.986;2022-11-30T05:51:55;0.00;99.90
10443;DHT22;5269;51.146;16.986;2022-11-30T05:54:26;-0.10;99.90
10443;DHT22;5269;51.146;16.986;2022-11-30T05:56:53;-0.10;99.90
10443;DHT22;5269;51.146;16.986;2022-11-30T05:59:23;-0.10;99.90
10443;DHT22;5269;51.146;16.986;2022-11-30T06:01:58;-0.10;99.90
10443;DHT22;5269;51.146;16.986;2022-11-30T06:04:33;0.00;99.90
10443;DHT22;5269;51.146;16.986;2022-11-30T06:07:00;0.00;99.90
10443;DHT22;5269;51.146;16.986;2022-11-30T06:09:39;0.00;99.90
10443;DHT22;5269;51.146;16.986;2022-11-30T06:12:06;0.00;99.90
10443;DHT22;5269;51.146;16.986;2022-11-30T06:14:33;0.00;99.90
10443;DHT22;5269;51.146;16.986;2022-11-30T06:17:00;0.00;99.90
10443;DHT22;5269;51.146;16.986;2022-11-30T06:19:27;-0.10;99.90
10443;DHT22;5269;51.146;16.986;2022-11-30T06:21:54;-0.10;99.90
10443;DHT22;5269;51.146;16.986;2022-11-30T06:24:20;-0.10;99.90
10443;DHT22;5269;51.146;16.986;2022-11-30T06:26:49;-0.10;99.90
10443;DHT22;5269;51.146;16.986;2022-11-30T06:29:16;-0.10;99.90
10443;DHT22;5269;51.146;16.986;2022-11-30T06:31:42;0.00;99.90
10443;DHT22;5269;51.146;16.986;2022-11-30T06:34:09;0.00;99.90
10443;DHT22;5269;51.146;16.986;2022-11-30T06:36:36;0.00;99.90
10443;DHT22;5269;51.146;16.986;2022-11-30T06:39:06;0.00;99.90
10443;DHT22;5269;51.146;16.986;2022-11-30T06:41:33;0.10;99.90
10443;DHT22;5269;51.146;16.986;2022-11-30T06:44:06;-0.10;99.90
10443;DHT22;5269;51.146;16.986;2022-11-30T06:46:34;0.00;99.90
10443;DHT22;5269;51.146;16.986;2022-11-30T06:49:01;0.00;99.90
10443;DHT22;5269;51.146;16.986;2022-11-30T06:51:28;0.00;99.90
10443;DHT22;5269;51.146;16.986;2022-11-30T06:53:57;0.10;99.90
10443;DHT22;5269;51.146;16.986;2022-11-30T06:56:24;0.10;99.90
10443;DHT22;5269;51.146;16.986;2022-11-30T06:58:54;0.10;99.90
10443;DHT22;5269;51.146;16.986;2022-11-30T07:01:22;0.20;99.90
10443;DHT22;5269;51.146;16.986;2022-11-30T07:03:58;0.10;99.90
10443;DHT22;5269;51.146;16.986;2022-11-30T07:06:27;0.20;99.90
10443;DHT22;5269;51.146;16.986;2022-11-30T07:08:56;0.20;99.90
10443;DHT22;5269;51.146;16.986;2022-11-30T07:11:29;0.10;99.90
10443;DHT22;5269;51.146;16.986;2022-11-30T07:13:58;0.20;99.90
10443;DHT22;5269;51.146;16.986;2022-11-30T07:16:32;0.00;99.90
10443;DHT22;5269;51.146;16.986;2022-11-30T07:18:59;0.10;99.90
10443;DHT22;5269;51.146;16.986;2022-11-30T07:21:28;0.10;99.90
10443;DHT22;5269;51.146;16.986;2022-11-30T07:23:55;0.00;99.90
10443;DHT22;5269;51.146;16.986;2022-11-30T07:26:39;-0.10;99.90
10443;DHT22;5269;51.146;16.986;2022-11-30T07:29:06;0.00;99.90
10443;DHT22;5269;51.146;16.986;2022-11-30T07:31:34;0.10;99.90
10443;DHT22;5269;51.146;16.986;2022-11-30T07:34:05;0.20;99.90
10443;DHT22;5269;51.146;16.986;2022-11-30T07:36:36;0.10;99.90
10443;DHT22;5269;51.146;16.986;2022-11-30T07:39:03;0.20;99.90
10443;DHT22;5269;51.146;16.986;2022-11-30T07:41:32;0.20;99.90
10443;DHT22;5269;51.146;16.986;2022-11-30T07:43:59;0.10;99.90
10443;DHT22;5269;51.146;16.986;2022-11-30T07:46:28;0.20;99.90
10443;DHT22;5269;51.146;16.986;2022-11-30T07:48:57;0.20;99.90
10443;DHT22;5269;51.146;16.986;2022-11-30T07:51:24;0.10;99.90
10443;DHT22;5269;51.146;16.986;2022-11-30T07:53:51;0.20;99.90
10443;DHT22;5269;51.146;16.986;2022-11-30T07:56:21;0.30;99.90
10443;DHT22;5269;51.146;16.986;2022-11-30T07:58:49;0.40;99.90
10443;DHT22;5269;51.146;16.986;2022-11-30T08:01:18;0.40;99.90
10443;DHT22;5269;51.146;16.986;2022-11-30T08:03:46;0.30;99.90
10443;DHT22;5269;51.146;16.986;2022-11-30T08:06:16;0.40;99.90
10443;DHT22;5269;51.146;16.986;2022-11-30T08:08:46;0.30;99.90
10443;DHT22;5269;51.146;16.986;2022-11-30T08:11:15;0.40;99.90
10443;DHT22;5269;51.146;16.986;2022-11-30T08:13:44;0.30;99.90
10443;DHT22;5269;51.146;16.986;2022-11-30T08:16:13;0.30;99.90
10443;DHT22;5269;51.146;16.986;2022-11-30T08:18:41;0.30;99.90
10443;DHT22;5269;51.146;16.986;2022-11-30T08:21:16;0.40;99.90
10443;DHT22;5269;51.146;16.986;2022-11-30T08:23:48;0.40;99.90
10443;DHT22;5269;51.146;16.986;2022-11-30T08:26:19;0.40;99.90
10443;DHT22;5269;51.146;16.986;2022-11-30T08:28:48;0.30;99.90
10443;DHT22;5269;51.146;16.986;2022-11-30T08:31:17;0.30;99.90
10443;DHT22;5269;51.146;16.986;2022-11-30T08:33:54;0.40;99.90
10443;DHT22;5269;51.146;16.986;2022-11-30T08:36:27;0.40;99.90
10443;DHT22;5269;51.146;16.986;2022-11-30T08:38:56;0.50;99.90
10443;DHT22;5269;51.146;16.986;2022-11-30T08:41:24;0.70;99.90
10443;DHT22;5269;51.146;16.986;2022-11-30T08:43:53;0.60;99.90
10443;DHT22;5269;51.146;16.986;2022-11-30T08:46:24;0.50;99.90
10443;DHT22;5269;51.146;16.986;2022-11-30T08:48:51;0.50;99.90
10443;DHT22;5269;51.146;16.986;2022-11-30T08:51:19;0.50;99.90
10443;DHT22;5269;51.146;16.986;2022-11-30T08:53:48;0.50;99.90
10443;DHT22;5269;51.146;16.986;2022-11-30T08:56:17;0.50;99.90
10443;DHT22;5269;51.146;16.986;2022-11-30T08:58:44;0.50;99.90
10443;DHT22;5269;51.146;16.986;2022-11-30T09:01:13;0.50;99.90
10443;DHT22;5269;51.146;16.986;2022-11-30T09:03:41;0.50;99.90
10443;DHT22;5269;51.146;16.986;2022-11-30T09:06:10;0.60;99.90
10443;DHT22;5269;51.146;16.986;2022-11-30T09:08:38;0.50;99.90
10443;DHT22;5269;51.146;16.986;2022-11-30T09:11:12;0.50;99.90
10443;DHT22;5269;51.146;16.986;2022-11-30T09:13:39;0.60;99.90
10443;DHT22;5269;51.146;16.986;2022-11-30T09:16:07;0.60;99.90
10443;DHT22;5269;51.146;16.986;2022-11-30T09:18:34;0.60;99.90
10443;DHT22;5269;51.146;16.986;2022-11-30T09:21:03;0.70;99.90
10443;DHT22;5269;51.146;16.986;2022-11-30T09:23:31;0.70;99.90
10443;DHT22;5269;51.146;16.986;2022-11-30T09:26:00;0.70;99.90
10443;DHT22;5269;51.146;16.986;2022-11-30T09:28:29;0.70;99.90
10443;DHT22;5269;51.146;16.986;2022-11-30T09:30:59;0.70;99.90
10443;DHT22;5269;51.146;16.986;2022-11-30T09:33:28;0.70;99.90
10443;DHT22;5269;51.146;16.986;2022-11-30T09:35:57;0.70;99.90
10443;DHT22;5269;51.146;16.986;2022-11-30T09:38:25;0.60;99.90
10443;DHT22;5269;51.146;16.986;2022-11-30T09:40:58;0.50;99.90
10443;DHT22;5269;51.146;16.986;2022-11-30T09:43:34;0.60;99.90
10443;DHT22;5269;51.146;16.986;2022-11-30T09:46:07;0.60;99.90
10443;DHT22;5269;51.146;16.986;2022-11-30T09:48:47;0.70;99.90
10443;DHT22;5269;51.146;16.986;2022-11-30T09:51:18;0.70;99.90
10443;DHT22;5269;51.146;16.986;2022-11-30T09:53:49;0.70;99.90
10443;DHT22;5269;51.146;16.986;2022-11-30T09:56:22;0.70;99.90
10443;DHT22;5269;51.146;16.986;2022-11-30T09:58:53;0.70;99.90
10443;DHT22;5269;51.146;16.986;2022-11-30T10:01:21;0.70;99.90
10443;DHT22;5269;51.146;16.986;2022-11-30T10:03:49;0.70;99.90
10443;DHT22;5269;51.146;16.986;2022-11-30T10:06:21;0.70;99.90
10443;DHT22;5269;51.146;16.986;2022-11-30T10:09:02;0.80;99.90
10443;DHT22;5269;51.146;16.986;2022-11-30T10:11:43;0.80;99.90
10443;DHT22;5269;51.146;16.986;2022-11-30T10:14:41;0.70;99.90
10443;DHT22;5269;51.146;16.986;2022-11-30T10:17:23;0.70;99.90
10443;DHT22;5269;51.146;16.986;2022-11-30T10:20:03;0.60;99.90
10443;DHT22;5269;51.146;16.986;2022-11-30T10:22:45;0.60;99.90
10443;DHT22;5269;51.146;16.986;2022-11-30T10:25:21;0.60;99.90
10443;DHT22;5269;51.146;16.986;2022-11-30T10:27:50;0.60;99.90
10443;DHT22;5269;51.146;16.986;2022-11-30T10:30:29;0.60;99.90
10443;DHT22;5269;51.146;16.986;2022-11-30T10:33:01;0.60;99.90
10443;DHT22;5269;51.146;16.986;2022-11-30T10:35:34;0.70;99.90
10443;DHT22;5269;51.146;16.986;2022-11-30T10:38:10;0.70;99.90
10443;DHT22;5269;51.146;16.986;2022-11-30T10:40:43;0.70;99.90
10443;DHT22;5269;51.146;16.986;2022-11-30T10:43:17;0.60;99.90
10443;DHT22;5269;51.146;16.986;2022-11-30T10:45:48;0.70;99.90
10443;DHT22;5269;51.146;16.986;2022-11-30T10:48:21;0.70;99.90
10443;DHT22;5269;51.146;16.986;2022-11-30T10:50:50;0.70;99.90
10443;DHT22;5269;51.146;16.986;2022-11-30T10:53:20;0.70;99.90
10443;DHT22;5269;51.146;16.986;2022-11-30T10:55:54;0.70;99.90
10443;DHT22;5269;51.146;16.986;2022-11-30T10:58:25;0.70;99.90
10443;DHT22;5269;51.146;16.986;2022-11-30T11:01:00;0.70;99.90
10443;DHT22;5269;51.146;16.986;2022-11-30T11:03:28;0.70;99.90
10443;DHT22;5269;51.146;16.986;2022-11-30T11:06:08;0.60;99.90
10443;DHT22;5269;51.146;16.986;2022-11-30T11:08:36;0.70;99.90
10443;DHT22;5269;51.146;16.986;2022-11-30T11:11:25;0.80;99.90
10443;DHT22;5269;51.146;16.986;2022-11-30T11:14:07;0.80;99.90
10443;DHT22;5269;51.146;16.986;2022-11-30T11:16:50;0.90;99.90
10443;DHT22;5269;51.146;16.986;2022-11-30T11:19:35;1.00;99.90
10443;DHT22;5269;51.146;16.986;2022-11-30T11:22:04;0.90;99.90
10443;DHT22;5269;51.146;16.986;2022-11-30T11:24:32;0.80;99.90
10443;DHT22;5269;51.146;16.986;2022-11-30T11:26:59;0.80;99.90
10443;DHT22;5269;51.146;16.986;2022-11-30T11:29:29;0.80;99.90
10443;DHT22;5269;51.146;16.986;2022-11-30T11:32:16;0.90;99.90
10443;DHT22;5269;51.146;16.986;2022-11-30T11:34:44;0.70;99.90
10443;DHT22;5269;51.146;16.986;2022-11-30T11:37:19;0.80;99.90
10443;DHT22;5269;51.146;16.986;2022-11-30T11:39:57;0.80;99.90
10443;DHT22;5269;51.146;16.986;2022-11-30T11:42:26;0.80;99.90
10443;DHT22;5269;51.146;16.986;2022-11-30T11:44:55;0.80;99.90
10443;DHT22;5269;51.146;16.986;2022-11-30T11:47:32;0.80;99.90
10443;DHT22;5269;51.146;16.986;2022-11-30T11:53:17;1.10;99.90
10443;DHT22;5269;51.146;16.986;2022-11-30T11:55:51;1.00;99.90
10443;DHT22;5269;51.146;16.986;2022-11-30T11:58:25;1.00;99.90
10443;DHT22;5269;51.146;16.986;2022-11-30T12:00:53;1.00;99.90
10443;DHT22;5269;51.146;16.986;2022-11-30T12:03:30;0.90;99.90
10443;DHT22;5269;51.146;16.986;2022-11-30T12:06:03;0.80;99.90
10443;DHT22;5269;51.146;16.986;2022-11-30T12:08:36;0.80;99.90
10443;DHT22;5269;51.146;16.986;2022-11-30T12:11:08;0.80;99.90
10443;DHT22;5269;51.146;16.986;2022-11-30T12:13:39;0.70;99.90
10443;DHT22;5269;51.146;16.986;2022-11-30T12:16:18;0.70;99.90
10443;DHT22;5269;51.146;16.986;2022-11-30T12:18:55;0.80;99.90
10443;DHT22;5269;51.146;16.986;2022-11-30T12:21:33;0.80;99.90
10443;DHT22;5269;51.146;16.986;2022-11-30T12:24:14;0.80;99.90
10443;DHT22;5269;51.146;16.986;2022-11-30T12:26:47;0.80;99.90
10443;DHT22;5269;51.146;16.986;2022-11-30T12:29:22;0.80;99.90
10443;DHT22;5269;51.146;16.986;2022-11-30T12:32:02;0.80;99.90
10443;DHT22;5269;51.146;16.986;2022-11-30T12:34:52;0.70;99.90
10443;DHT22;5269;51.146;16.986;2022-11-30T12:37:26;0.80;99.90
10443;DHT22;5269;51.146;16.986;2022-11-30T12:40:01;0.80;99.90
10443;DHT22;5269;51.146;16.986;2022-11-30T12:42:36;0.70;99.90
10443;DHT22;5269;51.146;16.986;2022-11-30T12:45:11;0.70;99.90
10443;DHT22;5269;51.146;16.986;2022-11-30T12:47:48;0.70;99.90
10443;DHT22;5269;51.146;16.986;2022-11-30T12:50:40;0.70;99.90
10443;DHT22;5269;51.146;16.986;2022-11-30T12:53:19;0.80;99.90
10443;DHT22;5269;51.146;16.986;2022-11-30T12:55:53;0.80;99.90
10443;DHT22;5269;51.146;16.986;2022-11-30T12:58:30;0.80;99.90
10443;DHT22;5269;51.146;16.986;2022-11-30T13:01:08;0.80;99.90
10443;DHT22;5269;51.146;16.986;2022-11-30T13:03:42;0.80;99.90
10443;DHT22;5269;51.146;16.986;2022-11-30T13:06:15;0.70;99.90
10443;DHT22;5269;51.146;16.986;2022-11-30T13:08:50;0.70;99.90
10443;DHT22;5269;51.146;16.986;2022-11-30T13:11:23;0.80;99.90
10443;DHT22;5269;51.146;16.986;2022-11-30T13:13:55;0.80;99.90
10443;DHT22;5269;51.146;16.986;2022-11-30T13:16:23;0.90;99.90
10443;DHT22;5269;51.146;16.986;2022-11-30T13:18:53;0.90;99.90
10443;DHT22;5269;51.146;16.986;2022-11-30T13:21:28;0.90;99.90
10443;DHT22;5269;51.146;16.986;2022-11-30T13:24:03;1.10;99.90
10443;DHT22;5269;51.146;16.986;2022-11-30T13:26:36;0.90;99.90
10443;DHT22;5269;51.146;16.986;2022-11-30T13:29:37;1.00;99.90
10443;DHT22;5269;51.146;16.986;2022-11-30T13:32:11;0.80;99.90
10443;DHT22;5269;51.146;16.986;2022-11-30T13:34:39;0.80;99.90
10443;DHT22;5269;51.146;16.986;2022-11-30T13:37:10;0.80;99.90
10443;DHT22;5269;51.146;16.986;2022-11-30T13:39:46;0.70;99.90
10443;DHT22;5269;51.146;16.986;2022-11-30T13:42:30;0.70;99.90
10443;DHT22;5269;51.146;16.986;2022-11-30T13:45:14;0.70;99.90
10443;DHT22;5269;51.146;16.986;2022-11-30T13:47:48;0.70;99.90
10443;DHT22;5269;51.146;16.986;2022-11-30T13:50:22;0.60;99.90
10443;DHT22;5269;51.146;16.986;2022-11-30T13:53:22;0.70;99.90
10443;DHT22;5269;51.146;16.986;2022-11-30T13:56:31;0.70;99.90
10443;DHT22;5269;51.146;16.986;2022-11-30T13:59:33;0.70;99.90
10443;DHT22;5269;51.146;16.986;2022-11-30T14:05:21;0.80;99.90
10443;DHT22;5269;51.146;16.986;2022-11-30T14:08:17;0.80;99.90
10443;DHT22;5269;51.146;16.986;2022-11-30T14:13:57;0.70;99.90
10443;DHT22;5269;51.146;16.986;2022-11-30T14:16:46;0.70;99.90
10443;DHT22;5269;51.146;16.986;2022-11-30T14:19:13;0.70;99.90
10443;DHT22;5269;51.146;16.986;2022-11-30T14:21:45;0.70;99.90
10443;DHT22;5269;51.146;16.986;2022-11-30T14:24:16;0.70;99.90
10443;DHT22;5269;51.146;16.986;2022-11-30T14:26:49;0.70;99.90
10443;DHT22;5269;51.146;16.986;2022-11-30T14:29:20;0.60;99.90
10443;DHT22;5269;51.146;16.986;2022-11-30T14:31:53;0.60;99.90
10443;DHT22;5269;51.146;16.986;2022-11-30T14:34:23;0.60;99.90
10443;DHT22;5269;51.146;16.986;2022-11-30T14:36:55;0.60;99.90
10443;DHT22;5269;51.146;16.986;2022-11-30T14:39:25;0.60;99.90
10443;DHT22;5269;51.146;16.986;2022-11-30T14:41:52;0.60;99.90
10443;DHT22;5269;51.146;16.986;2022-11-30T14:44:22;0.70;99.90
10443;DHT22;5269;51.146;16.986;2022-11-30T14:46:49;0.70;99.90
10443;DHT22;5269;51.146;16.986;2022-11-30T14:49:17;0.70;99.90
10443;DHT22;5269;51.146;16.986;2022-11-30T14:51:48;0.60;99.90
10443;DHT22;5269;51.146;16.986;2022-11-30T14:54:38;0.70;99.90
10443;DHT22;5269;51.146;16.986;2022-11-30T14:57:17;0.60;99.90
10443;DHT22;5269;51.146;16.986;2022-11-30T15:00:02;0.60;99.90
10443;DHT22;5269;51.146;16.986;2022-11-30T15:02:32;0.70;99.90
10443;DHT22;5269;51.146;16.986;2022-11-30T15:05:22;0.70;99.90
10443;DHT22;5269;51.146;16.986;2022-11-30T15:07:57;0.70;99.90
10443;DHT22;5269;51.146;16.986;2022-11-30T15:13:00;0.60;99.90
10443;DHT22;5269;51.146;16.986;2022-11-30T15:15:29;0.70;99.90
10443;DHT22;5269;51.146;16.986;2022-11-30T15:17:58;0.70;99.90
10443;DHT22;5269;51.146;16.986;2022-11-30T15:21:04;0.70;99.90
10443;DHT22;5269;51.146;16.986;2022-11-30T15:33:49;0.70;99.90
10443;DHT22;5269;51.146;16.986;2022-11-30T15:43:19;0.60;99.90
10443;DHT22;5269;51.146;16.986;2022-11-30T15:49:22;0.50;99.90
10443;DHT22;5269;51.146;16.986;2022-11-30T15:55:40;0.50;99.90
10443;DHT22;5269;51.146;16.986;2022-11-30T15:58:29;0.60;99.90
10443;DHT22;5269;51.146;16.986;2022-11-30T16:01:01;0.70;99.90
10443;DHT22;5269;51.146;16.986;2022-11-30T16:03:30;0.70;99.90
10443;DHT22;5269;51.146;16.986;2022-11-30T16:06:16;0.70;99.90
10443;DHT22;5269;51.146;16.986;2022-11-30T16:08:49;0.70;99.90
10443;DHT22;5269;51.146;16.986;2022-11-30T16:11:18;0.80;99.90
10443;DHT22;5269;51.146;16.986;2022-11-30T16:13:47;0.90;99.90
10443;DHT22;5269;51.146;16.986;2022-11-30T16:16:18;0.90;99.90
10443;DHT22;5269;51.146;16.986;2022-11-30T16:18:46;0.90;99.90
10443;DHT22;5269;51.146;16.986;2022-11-30T16:21:22;0.90;99.90
10443;DHT22;5269;51.146;16.986;2022-11-30T16:23:49;0.90;99.90
10443;DHT22;5269;51.146;16.986;2022-11-30T16:26:19;0.90;99.90
10443;DHT22;5269;51.146;16.986;2022-11-30T16:28:46;0.90;99.90
10443;DHT22;5269;51.146;16.986;2022-11-30T16:31:17;0.90;99.90
10443;DHT22;5269;51.146;16.986;2022-11-30T16:33:45;0.90;99.90
10443;DHT22;5269;51.146;16.986;2022-11-30T16:36:16;0.90;99.90
10443;DHT22;5269;51.146;16.986;2022-11-30T16:39:05;0.90;99.90
10443;DHT22;5269;51.146;16.986;2022-11-30T16:41:36;0.90;99.90
10443;DHT22;5269;51.146;16.986;2022-11-30T16:44:10;0.80;99.90
10443;DHT22;5269;51.146;16.986;2022-11-30T16:46:48;0.80;99.90
10443;DHT22;5269;51.146;16.986;2022-11-30T16:49:16;0.80;99.90
10443;DHT22;5269;51.146;16.986;2022-11-30T16:51:45;0.80;99.90